sensor_id;sensor_type;location;lat;lon;timestamp;temperature;humidity
463;DHT22;218;51.902;9.542;2023-04-24T00:00:02;16.70;1.00
463;DHT22;218;51.902;9.542;2023-04-24T00:02:32;16.90;1.00
463;DHT22;218;51.902;9.542;2023-04-24T00:04:59;16.80;1.00
463;DHT22;218;51.902;9.542;2023-04-24T00:09:55;16.80;1.00
463;DHT22;218;51.902;9.542;2023-04-24T00:12:22;16.80;1.00
463;DHT22;218;51.902;9.542;2023-04-24T00:14:49;16.70;1.00
463;DHT22;218;51.902;9.542;2023-04-24T00:17:16;16.80;1.00
463;DHT22;218;51.902;9.542;2023-04-24T00:19:46;16.70;1.00
463;DHT22;218;51.902;9.542;2023-04-24T00:22:13;16.80;1.00
463;DHT22;218;51.902;9.542;2023-04-24T00:24:40;16.70;1.00
463;DHT22;218;51.902;9.542;2023-04-24T00:27:07;16.80;1.00
463;DHT22;218;51.902;9.542;2023-04-24T00:32:01;16.60;1.00
463;DHT22;218;51.902;9.542;2023-04-24T00:36:59;16.70;1.00
463;DHT22;218;51.902;9.542;2023-04-24T00:39:26;16.50;1.00
463;DHT22;218;51.902;9.542;2023-04-24T00:46:48;16.50;1.00
463;DHT22;218;51.902;9.542;2023-04-24T00:49:20;16.30;1.00
463;DHT22;218;51.902;9.542;2023-04-24T00:51:47;16.50;1.00
463;DHT22;218;51.902;9.542;2023-04-24T01:01:39;16.30;1.00
463;DHT22;218;51.902;9.542;2023-04-24T01:04:07;16.20;1.00
463;DHT22;218;51.902;9.542;2023-04-24T01:06:38;16.30;1.00
463;DHT22;218;51.902;9.542;2023-04-24T01:14:01;16.10;1.00
463;DHT22;218;51.902;9.542;2023-04-24T01:18:56;16.20;1.00
463;DHT22;218;51.902;9.542;2023-04-24T01:23:52;16.00;1.00
463;DHT22;218;51.902;9.542;2023-04-24T01:28:47;15.60;1.00
463;DHT22;218;51.902;9.542;2023-04-24T01:33:42;15.90;1.00
463;DHT22;218;51.902;9.542;2023-04-24T01:38:37;15.80;1.00
463;DHT22;218;51.902;9.542;2023-04-24T01:41:06;15.60;1.00
463;DHT22;218;51.902;9.542;2023-04-24T01:53:22;15.50;1.00
463;DHT22;218;51.902;9.542;2023-04-24T01:58:18;15.70;1.00
463;DHT22;218;51.902;9.542;2023-04-24T02:13:01;15.40;1.00
463;DHT22;218;51.902;9.542;2023-04-24T02:15:29;15.30;1.00
463;DHT22;218;51.902;9.542;2023-04-24T02:20:23;15.40;1.00
463;DHT22;218;51.902;9.542;2023-04-24T02:22:50;15.00;1.00
463;DHT22;218;51.902;9.542;2023-04-24T02:25:17;15.80;1.00
463;DHT22;218;51.902;9.542;2023-04-24T02:37:35;15.30;1.00
463;DHT22;218;51.902;9.542;2023-04-24T02:44:58;15.00;1.00
463;DHT22;218;51.902;9.542;2023-04-24T02:47:25;15.00;1.00
463;DHT22;218;51.902;9.542;2023-04-24T02:52:20;15.00;1.00
463;DHT22;218;51.902;9.542;2023-04-24T03:07:06;15.00;1.00
463;DHT22;218;51.902;9.542;2023-04-24T03:09:33;14.90;1.00
463;DHT22;218;51.902;9.542;2023-04-24T03:12:00;15.20;1.00
463;DHT22;218;51.902;9.542;2023-04-24T03:21:51;15.00;1.00
463;DHT22;218;51.902;9.542;2023-04-24T03:31:41;15.20;1.00
463;DHT22;218;51.902;9.542;2023-04-24T03:39:02;14.70;1.00
463;DHT22;218;51.902;9.542;2023-04-24T03:43:58;15.00;1.00
463;DHT22;218;51.902;9.542;2023-04-24T03:53:47;15.00;1.00
463;DHT22;218;51.902;9.542;2023-04-24T03:58:42;14.80;1.00
463;DHT22;218;51.902;9.542;2023-04-24T04:06:04;14.90;1.00
463;DHT22;218;51.902;9.542;2023-04-24T04:08:31;14.90;1.00
463;DHT22;218;51.902;9.542;2023-04-24T04:13:25;14.90;1.00
463;DHT22;218;51.902;9.542;2023-04-24T04:25:42;14.90;1.00
463;DHT22;218;51.902;9.542;2023-04-24T04:28:09;14.90;1.00
463;DHT22;218;51.902;9.542;2023-04-24T04:30:36;14.90;1.00
463;DHT22;218;51.902;9.542;2023-04-24T04:33:05;15.10;1.00
463;DHT22;218;51.902;9.542;2023-04-24T04:35:32;14.70;1.00
463;DHT22;218;51.902;9.542;2023-04-24T04:37:58;15.20;1.00
463;DHT22;218;51.902;9.542;2023-04-24T04:40:26;15.10;1.00
463;DHT22;218;51.902;9.542;2023-04-24T04:42:53;15.00;1.00
463;DHT22;218;51.902;9.542;2023-04-24T04:47:47;15.30;1.00
463;DHT22;218;51.902;9.542;2023-04-24T04:52:45;15.30;1.00
463;DHT22;218;51.902;9.542;2023-04-24T04:57:40;15.10;1.00
463;DHT22;218;51.902;9.542;2023-04-24T05:02:36;15.10;1.00
463;DHT22;218;51.902;9.542;2023-04-24T05:12:26;15.30;1.00
463;DHT22;218;51.902;9.542;2023-04-24T05:17:20;15.60;1.00
463;DHT22;218;51.902;9.542;2023-04-24T05:22:14;15.00;1.00
463;DHT22;218;51.902;9.542;2023-04-24T05:27:11;15.60;1.00
463;DHT22;218;51.902;9.542;2023-04-24T05:39:27;15.70;1.00
463;DHT22;218;51.902;9.542;2023-04-24T05:41:55;15.30;1.00
463;DHT22;218;51.902;9.542;2023-04-24T05:44:24;15.40;1.00
463;DHT22;218;51.902;9.542;2023-04-24T05:46:51;15.50;1.00
463;DHT22;218;51.902;9.542;2023-04-24T05:54:12;15.00;1.00
463;DHT22;218;51.902;9.542;2023-04-24T05:59:08;15.50;1.00
463;DHT22;218;51.902;9.542;2023-04-24T06:06:30;15.40;1.00
463;DHT22;218;51.902;9.542;2023-04-24T06:13:52;15.40;1.00
463;DHT22;218;51.902;9.542;2023-04-24T06:28:39;15.20;1.00
463;DHT22;218;51.902;9.542;2023-04-24T06:31:05;15.20;1.00
463;DHT22;218;51.902;9.542;2023-04-24T06:38:29;15.30;1.00
463;DHT22;218;51.902;9.542;2023-04-24T06:45:50;15.60;1.00
463;DHT22;218;51.902;9.542;2023-04-24T06:48:17;15.40;1.00
463;DHT22;218;51.902;9.542;2023-04-24T06:50:45;15.60;1.00
463;DHT22;218;51.902;9.542;2023-04-24T06:53:13;15.60;1.00
463;DHT22;218;51.902;9.542;2023-04-24T07:12:55;15.70;1.00
463;DHT22;218;51.902;9.542;2023-04-24T07:17:50;15.70;1.00
463;DHT22;218;51.902;9.542;2023-04-24T07:20:17;15.80;1.00
463;DHT22;218;51.902;9.542;2023-04-24T07:22:43;15.80;1.00
463;DHT22;218;51.902;9.542;2023-04-24T07:27:39;15.90;1.00
463;DHT22;218;51.902;9.542;2023-04-24T07:30:07;16.10;1.00
463;DHT22;218;51.902;9.542;2023-04-24T07:37:28;16.20;1.00
463;DHT22;218;51.902;9.542;2023-04-24T07:44:51;16.50;1.00
463;DHT22;218;51.902;9.542;2023-04-24T07:49:45;16.30;1.00
463;DHT22;218;51.902;9.542;2023-04-24T07:54:39;16.50;1.00
463;DHT22;218;51.902;9.542;2023-04-24T08:02:02;16.50;1.00
463;DHT22;218;51.902;9.542;2023-04-24T08:04:29;16.50;1.00
463;DHT22;218;51.902;9.542;2023-04-24T08:06:56;16.60;1.00
463;DHT22;218;51.902;9.542;2023-04-24T08:11:50;16.40;1.00
463;DHT22;218;51.902;9.542;2023-04-24T08:14:17;16.60;1.00
463;DHT22;218;51.902;9.542;2023-04-24T08:16:45;16.60;1.00
463;DHT22;218;51.902;9.542;2023-04-24T08:19:12;16.60;1.00
463;DHT22;218;51.902;9.542;2023-04-24T08:26:34;16.90;1.00
463;DHT22;218;51.902;9.542;2023-04-24T08:29:00;16.80;1.00
463;DHT22;218;51.902;9.542;2023-04-24T08:31:27;16.80;1.00
463;DHT22;218;51.902;9.542;2023-04-24T08:33:56;16.80;1.00
463;DHT22;218;51.902;9.542;2023-04-24T08:36:22;17.00;1.00
463;DHT22;218;51.902;9.542;2023-04-24T08:38:49;17.00;1.00
463;DHT22;218;51.902;9.542;2023-04-24T08:43:46;17.30;1.00
463;DHT22;218;51.902;9.542;2023-04-24T08:46:13;17.40;1.00
463;DHT22;218;51.902;9.542;2023-04-24T08:48:42;17.50;1.00
463;DHT22;218;51.902;9.542;2023-04-24T08:51:11;17.60;1.00
463;DHT22;218;51.902;9.542;2023-04-24T08:53:38;17.70;1.00
463;DHT22;218;51.902;9.542;2023-04-24T09:01:00;17.70;1.00
463;DHT22;218;51.902;9.542;2023-04-24T09:03:28;17.80;1.00
463;DHT22;218;51.902;9.542;2023-04-24T09:05:56;17.80;1.00
463;DHT22;218;51.902;9.542;2023-04-24T09:08:26;17.80;1.00
463;DHT22;218;51.902;9.542;2023-04-24T09:10:54;17.70;1.00
463;DHT22;218;51.902;9.542;2023-04-24T09:15:51;17.60;1.00
463;DHT22;218;51.902;9.542;2023-04-24T09:18:19;17.60;1.00
463;DHT22;218;51.902;9.542;2023-04-24T09:20:58;17.50;1.00
463;DHT22;218;51.902;9.542;2023-04-24T09:23:28;17.30;1.00
463;DHT22;218;51.902;9.542;2023-04-24T09:31:03;17.30;1.00
463;DHT22;218;51.902;9.542;2023-04-24T09:33:31;17.30;1.00
463;DHT22;218;51.902;9.542;2023-04-24T09:35:58;17.20;1.00
463;DHT22;218;51.902;9.542;2023-04-24T09:38:33;17.20;1.00
463;DHT22;218;51.902;9.542;2023-04-24T09:41:01;17.30;1.00
463;DHT22;218;51.902;9.542;2023-04-24T09:43:29;17.30;1.00
463;DHT22;218;51.902;9.542;2023-04-24T09:45:57;17.20;1.00
463;DHT22;218;51.902;9.542;2023-04-24T09:48:31;17.10;1.00
463;DHT22;218;51.902;9.542;2023-04-24T09:50:59;17.00;1.00
463;DHT22;218;51.902;9.542;2023-04-24T09:55:56;16.90;1.00
463;DHT22;218;51.902;9.542;2023-04-24T09:58:29;17.00;1.00
463;DHT22;218;51.902;9.542;2023-04-24T10:10:48;17.40;1.00
463;DHT22;218;51.902;9.542;2023-04-24T10:15:44;17.60;1.00
463;DHT22;218;51.902;9.542;2023-04-24T10:18:12;17.40;1.00
463;DHT22;218;51.902;9.542;2023-04-24T10:20:40;17.60;1.00
463;DHT22;218;51.902;9.542;2023-04-24T10:25:35;17.60;1.00
463;DHT22;218;51.902;9.542;2023-04-24T10:30:33;17.80;1.00
463;DHT22;218;51.902;9.542;2023-04-24T10:33:02;17.90;1.00
463;DHT22;218;51.902;9.542;2023-04-24T10:35:31;17.90;1.00
463;DHT22;218;51.902;9.542;2023-04-24T10:38:01;18.00;1.00
463;DHT22;218;51.902;9.542;2023-04-24T10:40:31;18.10;1.00
463;DHT22;218;51.902;9.542;2023-04-24T10:42:59;18.00;1.00
463;DHT22;218;51.902;9.542;2023-04-24T10:50:25;18.00;1.00
463;DHT22;218;51.902;9.542;2023-04-24T10:52:52;18.10;1.00
463;DHT22;218;51.902;9.542;2023-04-24T10:55:48;18.10;1.00
463;DHT22;218;51.902;9.542;2023-04-24T11:03:26;17.60;1.00
463;DHT22;218;51.902;9.542;2023-04-24T11:05:58;17.60;1.00
463;DHT22;218;51.902;9.542;2023-04-24T11:11:09;17.30;1.00
463;DHT22;218;51.902;9.542;2023-04-24T11:16:27;17.20;1.00
463;DHT22;218;51.902;9.542;2023-04-24T11:19:03;17.20;1.00
463;DHT22;218;51.902;9.542;2023-04-24T11:26:54;17.10;1.00
463;DHT22;218;51.902;9.542;2023-04-24T11:29:22;17.10;1.00
463;DHT22;218;51.902;9.542;2023-04-24T11:34:18;16.90;1.00
463;DHT22;218;51.902;9.542;2023-04-24T11:39:13;16.90;1.00
463;DHT22;218;51.902;9.542;2023-04-24T11:41:40;16.80;1.00
463;DHT22;218;51.902;9.542;2023-04-24T11:44:08;16.60;1.00
463;DHT22;218;51.902;9.542;2023-04-24T11:49:05;16.40;1.00
463;DHT22;218;51.902;9.542;2023-04-24T11:54:01;16.40;1.00
463;DHT22;218;51.902;9.542;2023-04-24T11:56:28;16.50;1.00
463;DHT22;218;51.902;9.542;2023-04-24T12:06:17;16.50;1.00
463;DHT22;218;51.902;9.542;2023-04-24T12:08:49;16.30;1.00
463;DHT22;218;51.902;9.542;2023-04-24T12:13:47;16.20;1.00
463;DHT22;218;51.902;9.542;2023-04-24T12:23:44;16.00;1.00
463;DHT22;218;51.902;9.542;2023-04-24T12:38:32;16.00;1.00
463;DHT22;218;51.902;9.542;2023-04-24T12:48:31;15.70;1.00
463;DHT22;218;51.902;9.542;2023-04-24T13:00:51;15.50;1.00
463;DHT22;218;51.902;9.542;2023-04-24T13:08:15;15.50;1.00
463;DHT22;218;51.902;9.542;2023-04-24T13:15:36;15.30;1.00
463;DHT22;218;51.902;9.542;2023-04-24T13:27:55;15.30;1.00
463;DHT22;218;51.902;9.542;2023-04-24T13:30:22;15.20;1.00
463;DHT22;218;51.902;9.542;2023-04-24T13:32:49;15.20;1.00
463;DHT22;218;51.902;9.542;2023-04-24T13:35:17;15.00;1.00
463;DHT22;218;51.902;9.542;2023-04-24T13:40:11;15.20;1.00
463;DHT22;218;51.902;9.542;2023-04-24T13:50:00;15.00;1.00
463;DHT22;218;51.902;9.542;2023-04-24T13:52:29;14.80;1.00
463;DHT22;218;51.902;9.542;2023-04-24T13:54:56;14.80;1.00
463;DHT22;218;51.902;9.542;2023-04-24T13:57:23;14.80;1.00
463;DHT22;218;51.902;9.542;2023-04-24T14:04:44;14.80;1.00
463;DHT22;218;51.902;9.542;2023-04-24T14:12:09;15.00;1.00
463;DHT22;218;51.902;9.542;2023-04-24T14:17:03;14.40;1.00
463;DHT22;218;51.902;9.542;2023-04-24T14:19:30;15.00;1.00
463;DHT22;218;51.902;9.542;2023-04-24T14:24:24;14.90;1.00
463;DHT22;218;51.902;9.542;2023-04-24T14:29:19;14.80;1.00
463;DHT22;218;51.902;9.542;2023-04-24T14:36:41;14.80;1.00
463;DHT22;218;51.902;9.542;2023-04-24T14:49:00;15.00;1.00
463;DHT22;218;51.902;9.542;2023-04-24T14:53:56;14.70;1.00
463;DHT22;218;51.902;9.542;2023-04-24T14:56:23;14.60;1.00
463;DHT22;218;51.902;9.542;2023-04-24T15:08:40;14.30;1.00
463;DHT22;218;51.902;9.542;2023-04-24T15:11:07;14.70;1.00
463;DHT22;218;51.902;9.542;2023-04-24T15:16:02;14.80;1.00
463;DHT22;218;51.902;9.542;2023-04-24T15:18:30;14.70;1.00
463;DHT22;218;51.902;9.542;2023-04-24T15:23:24;14.60;1.00
463;DHT22;218;51.902;9.542;2023-04-24T15:25:51;14.70;1.00
463;DHT22;218;51.902;9.542;2023-04-24T15:28:18;14.70;1.00
463;DHT22;218;51.902;9.542;2023-04-24T15:33:14;14.50;1.00
463;DHT22;218;51.902;9.542;2023-04-24T15:43:04;15.00;1.00
463;DHT22;218;51.902;9.542;2023-04-24T15:47:58;14.60;1.00
463;DHT22;218;51.902;9.542;2023-04-24T15:52:55;14.40;1.00
463;DHT22;218;51.902;9.542;2023-04-24T15:57:49;15.00;1.00
463;DHT22;218;51.902;9.542;2023-04-24T16:00:16;14.50;1.00
463;DHT22;218;51.902;9.542;2023-04-24T16:15:02;14.20;1.00
463;DHT22;218;51.902;9.542;2023-04-24T16:29:46;14.20;1.00
463;DHT22;218;51.902;9.542;2023-04-24T16:32:13;14.30;1.00
463;DHT22;218;51.902;9.542;2023-04-24T16:42:09;14.50;1.00
463;DHT22;218;51.902;9.542;2023-04-24T16:54:28;14.60;1.00
463;DHT22;218;51.902;9.542;2023-04-24T17:09:16;14.40;1.00
463;DHT22;218;51.902;9.542;2023-04-24T17:11:43;14.70;1.00
463;DHT22;218;51.902;9.542;2023-04-24T17:19:07;14.60;1.00
463;DHT22;218;51.902;9.542;2023-04-24T17:24:01;14.40;1.00
463;DHT22;218;51.902;9.542;2023-04-24T17:31:24;14.10;1.00
463;DHT22;218;51.902;9.542;2023-04-24T17:38:46;14.10;1.00
463;DHT22;218;51.902;9.542;2023-04-24T17:43:41;14.50;1.00
463;DHT22;218;51.902;9.542;2023-04-24T17:46:10;14.30;1.00
463;DHT22;218;51.902;9.542;2023-04-24T17:51:04;14.00;1.00
463;DHT22;218;51.902;9.542;2023-04-24T17:56:00;14.40;1.00
463;DHT22;218;51.902;9.542;2023-04-24T18:03:23;14.00;1.00
463;DHT22;218;51.902;9.542;2023-04-24T18:08:17;13.90;1.00
463;DHT22;218;51.902;9.542;2023-04-24T18:13:12;14.00;1.00
463;DHT22;218;51.902;9.542;2023-04-24T18:15:39;14.10;1.00
463;DHT22;218;51.902;9.542;2023-04-24T18:20:35;14.10;1.00
463;DHT22;218;51.902;9.542;2023-04-24T18:23:03;14.10;1.00
463;DHT22;218;51.902;9.542;2023-04-24T18:25:30;14.60;1.00
463;DHT22;218;51.902;9.542;2023-04-24T18:30:25;13.90;1.00
463;DHT22;218;51.902;9.542;2023-04-24T18:57:31;13.70;1.00
463;DHT22;218;51.902;9.542;2023-04-24T19:19:38;13.70;1.00
463;DHT22;218;51.902;9.542;2023-04-24T19:29:27;13.40;1.00
463;DHT22;218;51.902;9.542;2023-04-24T19:36:52;13.50;1.00
463;DHT22;218;51.902;9.542;2023-04-24T19:39:18;13.20;1.00
463;DHT22;218;51.902;9.542;2023-04-24T19:41:45;13.40;1.00
463;DHT22;218;51.902;9.542;2023-04-24T19:51:36;14.10;1.00
463;DHT22;218;51.902;9.542;2023-04-24T20:06:20;13.10;1.00
463;DHT22;218;51.902;9.542;2023-04-24T20:16:10;13.30;1.00
463;DHT22;218;51.902;9.542;2023-04-24T20:18:37;13.40;1.00
463;DHT22;218;51.902;9.542;2023-04-24T20:23:31;13.00;1.00
463;DHT22;218;51.902;9.542;2023-04-24T20:28:27;12.70;1.00
463;DHT22;218;51.902;9.542;2023-04-24T20:33:22;13.00;1.00
463;DHT22;218;51.902;9.542;2023-04-24T20:38:18;12.90;1.00
463;DHT22;218;51.902;9.542;2023-04-24T20:45:42;12.90;1.00
463;DHT22;218;51.902;9.542;2023-04-24T20:58:01;12.80;1.00
463;DHT22;218;51.902;9.542;2023-04-24T21:02:57;12.80;1.00
463;DHT22;218;51.902;9.542;2023-04-24T21:07:51;12.80;1.00
463;DHT22;218;51.902;9.542;2023-04-24T21:25:06;12.40;1.00
463;DHT22;218;51.902;9.542;2023-04-24T21:27:34;13.00;1.00
463;DHT22;218;51.902;9.542;2023-04-24T21:32:28;12.70;1.00
463;DHT22;218;51.902;9.542;2023-04-24T21:34:55;12.80;1.00
463;DHT22;218;51.902;9.542;2023-04-24T21:42:19;12.30;1.00
463;DHT22;218;51.902;9.542;2023-04-24T21:59:33;12.40;1.00
463;DHT22;218;51.902;9.542;2023-04-24T22:02:00;13.10;1.00
463;DHT22;218;51.902;9.542;2023-04-24T22:06:54;12.70;1.00
463;DHT22;218;51.902;9.542;2023-04-24T22:09:21;12.50;1.00
463;DHT22;218;51.902;9.542;2023-04-24T22:16:44;12.30;1.00
463;DHT22;218;51.902;9.542;2023-04-24T22:21:39;12.00;1.00
463;DHT22;218;51.902;9.542;2023-04-24T22:38:51;12.20;1.00
463;DHT22;218;51.902;9.542;2023-04-24T22:48:41;11.90;1.00
463;DHT22;218;51.902;9.542;2023-04-24T22:53:36;12.50;1.00
463;DHT22;218;51.902;9.542;2023-04-24T22:58:31;12.00;1.00
463;DHT22;218;51.902;9.542;2023-04-24T23:03:27;12.10;1.00
463;DHT22;218;51.902;9.542;2023-04-24T23:05:54;11.90;1.00
463;DHT22;218;51.902;9.542;2023-04-24T23:08:21;11.60;1.00
463;DHT22;218;51.902;9.542;2023-04-24T23:30:27;11.20;1.00
463;DHT22;218;51.902;9.542;2023-04-24T23:35:21;11.10;1.00
463;DHT22;218;51.902;9.542;2023-04-24T23:40:17;11.50;1.00
463;DHT22;218;51.902;9.542;2023-04-24T23:55:02;10.90;1.00
